Calgary International Airport
CYYC : rendu visible

Aérodrome :











RETROUVEZ-NOUS SUR...

 
LOGIN :

S'inscrire | Disclaimer

   EN    FR    IT 

 









Légende :    VFR   VFR Marginal   IFR   IFR Intensif   IFR Très Intensif
Visi : 
Plafond : 
>= 8 km
>= 3000ft
5 à 8 km
1000 à 3000 ft
1500m à 5 km
500 à 1000 ft
800 à 1500m
200 à 500 ft
< 800m
< 200 ft
Symboles :   Orages  Brouillard  Fortes neiges  Fortes précipitations  Vent > 20 kt






- Altitude de l'aérodrome : 3557 ft
- Code IATA : YYC


CYYC - Calgary International

DERNIER METAR :
  • 301700Z 09010KT 1 3/4SM BR OVC006 M07/M08 A2984 RMK ST8 SLP160

METARs EXPIRÉS :
  • 301600Z 06006KT 2 1/2SM BR OVC006 M07/M08 A2983 RMK ST8 SLP158

TAF TAF CYYC
Valide du 30 à 15h jusqu'au 31 à 12h UTC


301438Z 3015/3112 04008KT 2SM -SN BR OVC008
TEMPO 3015/3018 5SM BR OVC015
PROB30 3015/3018 3/4SM -FZDZ BR OVC005
FM301800 08012KT P6SM SCT015 BKN025
TEMPO 3018/3024 5SM -SN BKN015 OVC025
FM310000 06015KT P6SM -SN OVC030
TEMPO 3100/3105 1SM -SHSN VV010
BECMG 3102/3104 36015KT
FM310500 36012KT P6SM BKN020 RMK NXT FCST BY 301800Z



MET'MAP, la Météo Aéronautique d'un coup d'oeil ! - Copyright ORBIFLY Décembre 2007 - Disclaimer

ORBIFLY MET'MAP TEAM :

Programmation & Développement : Alexandra Zaïnal
Sur une idée originale de : Baudouin d'Aumeries
Assistance à la programmation : Marc-Olivier Méhu
Soutien technique & logistique : Manuel Goepfert

Contact : metmap@orbifly.com




SOURCES & CREDITS :

   NOAA       Earth
Advisory